createdAt,value
2023-03-28T00:01:08.302Z,22.40
2023-03-28T00:02:11.468Z,17.90
2023-03-28T00:03:19.214Z,16.80
2023-03-28T00:04:23.031Z,17.80
2023-03-28T00:05:25.895Z,21.30
2023-03-28T00:06:28.950Z,19.10
2023-03-28T00:07:31.839Z,19.50
2023-03-28T00:08:34.597Z,18.50
2023-03-28T00:09:37.739Z,23.80
2023-03-28T00:10:41.029Z,22.40
2023-03-28T00:11:44.406Z,24.30
2023-03-28T00:12:47.242Z,24.90
2023-03-28T00:13:58.531Z,24.20
2023-03-28T00:15:04.639Z,23.40
2023-03-28T00:16:12.673Z,20.20
2023-03-28T00:17:17.645Z,22.30
2023-03-28T00:18:20.383Z,21.30
2023-03-28T00:19:23.127Z,21.30
2023-03-28T00:20:25.828Z,20.80
2023-03-28T00:21:35.451Z,20.90
2023-03-28T00:22:38.819Z,20.30
2023-03-28T00:23:42.784Z,24.10
2023-03-28T00:24:47.754Z,21.60
2023-03-28T00:25:50.513Z,21.50
2023-03-28T00:26:54.661Z,21.50
2023-03-28T00:27:57.847Z,21.10
2023-03-28T00:29:02.105Z,19.50
2023-03-28T00:30:06.074Z,21.80
2023-03-28T00:31:08.926Z,17.70
2023-03-28T00:32:11.783Z,19.20
2023-03-28T00:33:14.635Z,17.90
2023-03-28T00:34:17.742Z,22.50
2023-03-28T00:35:20.881Z,19.60
2023-03-28T00:36:26.801Z,18.50
2023-03-28T00:37:29.978Z,21.40
2023-03-28T00:38:38.782Z,19.40
2023-03-28T00:39:41.672Z,18.10
2023-03-28T00:40:46.092Z,17.20
2023-03-28T00:41:49.412Z,17.50
2023-03-28T00:42:53.008Z,19.60
2023-03-28T00:43:57.524Z,18.30
2023-03-28T00:45:00.457Z,18.10
2023-03-28T00:46:09.452Z,20.60
2023-03-28T00:47:15.623Z,20.20
2023-03-28T00:48:19.168Z,15.30
2023-03-28T00:49:25.144Z,18.00
2023-03-28T00:50:33.304Z,18.10
2023-03-28T00:51:40.108Z,17.60
2023-03-28T00:52:52.940Z,19.80
2023-03-28T00:54:00.123Z,17.40
2023-03-28T00:55:04.894Z,20.40
2023-03-28T00:56:11.589Z,16.90
2023-03-28T00:57:16.633Z,17.80
2023-03-28T00:58:27.990Z,19.70
2023-03-28T00:59:34.684Z,17.90
2023-03-28T01:00:41.387Z,20.90
2023-03-28T01:01:45.973Z,17.20
2023-03-28T01:02:53.277Z,15.40
2023-03-28T01:04:05.659Z,19.00
2023-03-28T01:05:09.263Z,21.30
2023-03-28T01:06:14.562Z,17.00
2023-03-28T01:07:18.903Z,17.90
2023-03-28T01:08:25.089Z,16.60
2023-03-28T01:09:29.822Z,17.80
2023-03-28T01:10:33.549Z,16.70
2023-03-28T01:11:39.765Z,18.70
2023-03-28T01:12:43.770Z,17.20
2023-03-28T01:13:50.741Z,21.70
2023-03-28T01:14:54.584Z,16.60
2023-03-28T01:15:59.688Z,17.90
2023-03-28T01:17:02.724Z,20.20
2023-03-28T01:18:11.391Z,19.40
2023-03-28T01:19:29.949Z,16.50
2023-03-28T01:21:14.134Z,18.00
2023-03-28T01:22:32.145Z,16.30
2023-03-28T01:24:10.960Z,17.30
2023-03-28T01:25:36.840Z,16.40
2023-03-28T01:26:48.970Z,18.20
2023-03-28T01:28:24.090Z,16.20
2023-03-28T01:29:36.071Z,16.40
2023-03-28T01:31:30.040Z,18.20
2023-03-28T01:32:47.631Z,16.40
2023-03-28T01:34:28.669Z,16.90
2023-03-28T01:36:09.266Z,19.30
2023-03-28T01:37:31.576Z,17.20
2023-03-28T01:38:42.390Z,15.40
2023-03-28T01:39:57.127Z,15.70
2023-03-28T01:41:28.657Z,18.40
2023-03-28T01:42:47.692Z,15.80
2023-03-28T01:44:17.874Z,16.40
2023-03-28T01:45:32.669Z,15.50
2023-03-28T01:46:43.498Z,15.60
2023-03-28T01:47:55.977Z,17.70
2023-03-28T01:49:11.920Z,17.20
2023-03-28T01:50:26.112Z,17.60
2023-03-28T01:51:51.427Z,18.60
2023-03-28T01:53:06.918Z,16.60
2023-03-28T01:54:26.291Z,16.50
2023-03-28T01:55:57.376Z,18.90
2023-03-28T01:57:30.801Z,19.00
2023-03-28T01:58:57.610Z,19.00
2023-03-28T02:00:49.882Z,18.70
2023-03-28T02:02:14.968Z,16.40
2023-03-28T02:03:29.343Z,17.80
2023-03-28T02:04:38.901Z,18.50
2023-03-28T02:05:44.408Z,16.50
2023-03-28T02:06:52.681Z,17.40
2023-03-28T02:08:02.860Z,17.50
2023-03-28T02:09:17.584Z,18.60
2023-03-28T02:10:55.631Z,18.20
2023-03-28T02:12:14.503Z,18.70
2023-03-28T02:13:50.069Z,18.10
2023-03-28T02:15:26.041Z,17.80
2023-03-28T02:16:50.982Z,18.30
2023-03-28T02:18:23.694Z,16.60
2023-03-28T02:19:36.200Z,18.00
2023-03-28T02:21:07.296Z,19.40
2023-03-28T02:22:46.514Z,18.10
2023-03-28T02:24:21.928Z,18.00
2023-03-28T02:25:43.265Z,21.10
2023-03-28T02:27:00.131Z,19.50
2023-03-28T02:28:15.246Z,18.60
2023-03-28T02:29:49.431Z,16.90
2023-03-28T02:30:55.420Z,16.90
2023-03-28T02:31:58.394Z,17.70
2023-03-28T02:33:03.375Z,18.40
2023-03-28T02:34:06.623Z,18.50
2023-03-28T02:35:10.222Z,16.10
2023-03-28T02:36:42.001Z,17.30
2023-03-28T02:38:12.973Z,16.30
2023-03-28T02:39:45.005Z,15.60
2023-03-28T02:41:08.037Z,19.50
2023-03-28T02:42:36.124Z,18.10
2023-03-28T02:44:03.476Z,17.60
2023-03-28T02:45:43.319Z,17.40
2023-03-28T02:47:01.526Z,16.80
2023-03-28T02:48:25.337Z,15.40
2023-03-28T02:51:09.215Z,17.60
2023-03-28T02:52:41.387Z,17.60
2023-03-28T02:54:03.540Z,27.50
2023-03-28T02:55:06.340Z,14.50
2023-03-28T02:56:51.021Z,19.10
2023-03-28T02:58:34.281Z,18.70
2023-03-28T02:59:43.241Z,17.90
2023-03-28T03:00:46.260Z,15.70
2023-03-28T03:01:49.488Z,18.80
2023-03-28T03:02:52.609Z,19.00
2023-03-28T03:03:57.983Z,17.10
2023-03-28T03:05:01.875Z,15.80
2023-03-28T03:06:05.517Z,21.40
2023-03-28T03:07:09.665Z,20.80
2023-03-28T03:08:12.536Z,22.60
2023-03-28T03:09:16.842Z,18.90
2023-03-28T03:10:20.138Z,19.10
2023-03-28T03:11:25.001Z,21.90
2023-03-28T03:12:27.821Z,20.50
2023-03-28T03:13:32.789Z,16.00
2023-03-28T03:14:39.007Z,18.80
2023-03-28T03:16:11.263Z,21.40
2023-03-28T03:17:14.190Z,18.70
2023-03-28T03:18:17.198Z,17.50
2023-03-28T03:19:20.216Z,18.90
2023-03-28T03:20:23.067Z,18.80
2023-03-28T03:21:26.579Z,22.80
2023-03-28T03:22:29.402Z,19.90
2023-03-28T03:23:32.186Z,17.20
2023-03-28T03:24:36.542Z,16.20
2023-03-28T03:25:39.723Z,15.90
2023-03-28T03:27:08.762Z,17.50
2023-03-28T03:28:13.212Z,16.20
2023-03-28T03:29:16.845Z,15.80
2023-03-28T03:30:20.839Z,16.10
2023-03-28T03:31:42.309Z,18.90
2023-03-28T03:33:16.687Z,14.70
2023-03-28T03:34:20.875Z,16.90
2023-03-28T03:35:34.684Z,16.60
2023-03-28T03:36:40.616Z,15.60
2023-03-28T03:37:43.887Z,15.80
2023-03-28T03:38:47.649Z,17.10
2023-03-28T03:39:54.429Z,15.40
2023-03-28T03:41:03.102Z,17.40
2023-03-28T03:42:06.004Z,16.90
2023-03-28T03:43:09.389Z,17.00
2023-03-28T03:44:12.648Z,18.70
2023-03-28T03:45:15.827Z,14.70
2023-03-28T03:46:19.230Z,14.20
2023-03-28T03:47:23.520Z,13.60
2023-03-28T03:48:26.676Z,13.80
2023-03-28T03:49:32.975Z,12.90
2023-03-28T03:50:38.722Z,17.40
2023-03-28T03:51:47.655Z,15.30
2023-03-28T03:52:52.342Z,16.10
2023-03-28T03:53:59.867Z,13.50
2023-03-28T03:55:14.676Z,16.40
2023-03-28T03:56:17.953Z,16.20
2023-03-28T03:57:32.531Z,19.30
2023-03-28T03:58:37.481Z,14.30
2023-03-28T03:59:43.462Z,13.90
2023-03-28T04:00:49.247Z,15.50
2023-03-28T04:02:09.999Z,12.40
2023-03-28T04:03:24.127Z,14.10
2023-03-28T04:04:28.540Z,14.70
2023-03-28T04:05:49.597Z,15.30
2023-03-28T04:06:52.417Z,15.70
2023-03-28T04:07:57.608Z,14.00
2023-03-28T04:09:07.726Z,17.90
2023-03-28T04:10:30.808Z,15.30
2023-03-28T04:11:34.899Z,12.50
2023-03-28T04:12:37.810Z,13.70
2023-03-28T04:13:41.587Z,14.90
2023-03-28T04:14:44.428Z,13.40
2023-03-28T04:16:23.951Z,17.50
2023-03-28T04:17:35.282Z,14.50
2023-03-28T04:18:45.678Z,14.40
2023-03-28T04:19:49.736Z,17.90
2023-03-28T04:20:56.237Z,15.30
2023-03-28T04:22:18.296Z,14.50
2023-03-28T04:23:26.245Z,16.60
2023-03-28T04:24:29.837Z,16.50
2023-03-28T04:25:49.364Z,14.80
2023-03-28T04:27:00.361Z,14.30
2023-03-28T04:28:03.534Z,16.20
2023-03-28T04:29:10.558Z,15.80
2023-03-28T04:30:18.094Z,16.20
2023-03-28T04:31:41.427Z,16.40
2023-03-28T04:33:25.206Z,14.50
2023-03-28T04:34:31.522Z,16.80
2023-03-28T04:35:42.246Z,16.60
2023-03-28T04:36:47.065Z,14.70
2023-03-28T04:37:49.840Z,13.90
2023-03-28T04:38:59.186Z,17.80
2023-03-28T04:40:28.170Z,14.80
2023-03-28T04:41:55.994Z,18.70
2023-03-28T04:43:17.766Z,19.50
2023-03-28T04:45:39.330Z,19.90
2023-03-28T04:46:51.036Z,18.00
2023-03-28T04:47:53.956Z,19.10
2023-03-28T04:48:57.546Z,18.50
2023-03-28T04:50:03.996Z,20.00
2023-03-28T04:51:10.286Z,23.40
2023-03-28T04:52:14.582Z,18.00
2023-03-28T04:53:20.741Z,21.50
2023-03-28T04:54:42.416Z,17.40
2023-03-28T04:55:51.167Z,19.30
2023-03-28T04:56:57.486Z,16.90
2023-03-28T04:58:08.839Z,15.50
2023-03-28T04:59:12.431Z,19.90
2023-03-28T05:00:17.359Z,22.90
2023-03-28T05:01:38.308Z,17.20
2023-03-28T05:03:14.830Z,15.90
2023-03-28T05:04:26.659Z,16.80
2023-03-28T05:05:30.951Z,18.10
2023-03-28T05:06:34.248Z,18.00
2023-03-28T05:07:37.383Z,17.40
2023-03-28T05:08:40.331Z,20.30
2023-03-28T05:09:43.436Z,20.40
2023-03-28T05:10:46.921Z,15.30
2023-03-28T05:11:50.156Z,18.80
2023-03-28T05:12:53.812Z,18.20
2023-03-28T05:13:58.345Z,15.00
2023-03-28T05:15:22.182Z,19.00
2023-03-28T05:16:49.089Z,18.00
2023-03-28T05:18:11.652Z,19.40
2023-03-28T05:19:14.396Z,16.50
2023-03-28T05:20:46.488Z,15.90
2023-03-28T05:21:49.803Z,22.40
2023-03-28T05:22:54.189Z,16.20
2023-03-28T05:23:57.006Z,17.20
2023-03-28T05:25:00.405Z,14.50
2023-03-28T05:26:03.358Z,17.40
2023-03-28T05:27:08.191Z,15.30
2023-03-28T05:28:12.331Z,19.40
2023-03-28T05:29:23.083Z,17.10
2023-03-28T05:30:26.289Z,17.00
2023-03-28T05:31:30.958Z,20.90
2023-03-28T05:32:48.118Z,19.60
2023-03-28T05:33:52.026Z,13.70
2023-03-28T05:35:05.913Z,18.60
2023-03-28T05:36:09.219Z,21.70
2023-03-28T05:37:12.571Z,18.80
2023-03-28T05:38:25.435Z,21.70
2023-03-28T05:39:31.413Z,20.50
2023-03-28T05:41:43.869Z,18.50
2023-03-28T05:42:47.551Z,18.90
2023-03-28T05:43:51.668Z,18.30
2023-03-28T05:45:07.469Z,19.00
2023-03-28T05:46:32.001Z,19.60
2023-03-28T05:47:35.053Z,18.60
2023-03-28T05:48:38.605Z,20.30
2023-03-28T05:49:41.758Z,21.80
2023-03-28T05:50:48.525Z,25.50
2023-03-28T05:51:52.138Z,24.70
2023-03-28T05:52:55.069Z,23.50
2023-03-28T05:53:57.847Z,25.70
2023-03-28T05:55:00.841Z,22.70
2023-03-28T05:56:04.366Z,23.20
2023-03-28T05:57:09.120Z,22.60
2023-03-28T05:58:12.038Z,23.80
2023-03-28T05:59:18.836Z,23.40
2023-03-28T06:00:25.735Z,25.20
2023-03-28T06:01:46.122Z,24.50
2023-03-28T06:02:51.771Z,25.60
2023-03-28T06:03:56.114Z,27.10
2023-03-28T06:05:00.354Z,24.10
2023-03-28T06:06:04.608Z,23.60
2023-03-28T06:07:07.976Z,26.90
2023-03-28T06:08:10.913Z,28.30
2023-03-28T06:09:15.776Z,27.40
2023-03-28T06:10:26.572Z,29.00
2023-03-28T06:11:45.235Z,32.50
2023-03-28T06:12:47.993Z,30.30
2023-03-28T06:13:50.804Z,27.70
2023-03-28T06:14:54.932Z,28.30
2023-03-28T06:16:03.905Z,30.70
2023-03-28T06:17:08.895Z,32.80
2023-03-28T06:18:22.228Z,30.10
2023-03-28T06:19:26.327Z,32.20
2023-03-28T06:20:31.210Z,31.00
2023-03-28T06:21:34.483Z,32.70
2023-03-28T06:22:41.391Z,30.80
2023-03-28T06:23:46.639Z,35.70
2023-03-28T06:24:58.806Z,39.40
2023-03-28T06:26:07.685Z,31.80
2023-03-28T06:27:16.148Z,34.50
2023-03-28T06:28:18.934Z,35.30
2023-03-28T06:29:57.169Z,34.30
2023-03-28T06:31:00.177Z,36.80
2023-03-28T06:32:04.231Z,33.40
2023-03-28T06:33:07.878Z,35.90
2023-03-28T06:34:10.757Z,35.50
2023-03-28T06:35:22.585Z,33.30
2023-03-28T06:36:26.181Z,38.70
2023-03-28T06:37:29.014Z,30.50
2023-03-28T06:38:38.234Z,29.90
2023-03-28T06:39:41.377Z,32.60
2023-03-28T06:40:45.249Z,32.70
2023-03-28T06:41:48.463Z,37.40
2023-03-28T06:42:51.297Z,34.80
2023-03-28T06:44:12.557Z,29.60
2023-03-28T06:45:33.984Z,33.00
2023-03-28T06:46:40.045Z,31.20
2023-03-28T06:47:42.867Z,35.50
2023-03-28T06:48:46.000Z,33.80
2023-03-28T06:50:01.031Z,29.80
2023-03-28T06:51:13.213Z,31.30
2023-03-28T06:52:17.029Z,28.70
2023-03-28T06:53:20.983Z,34.30
2023-03-28T06:54:24.005Z,31.80
2023-03-28T06:55:26.961Z,26.10
2023-03-28T06:56:31.256Z,27.40
2023-03-28T06:57:34.539Z,31.30
2023-03-28T06:58:46.141Z,30.90
2023-03-28T06:59:51.677Z,29.30
2023-03-28T07:01:00.215Z,30.30
2023-03-28T07:02:17.345Z,30.60
2023-03-28T07:03:20.959Z,29.40
2023-03-28T07:04:23.803Z,27.40
2023-03-28T07:05:26.600Z,30.90
2023-03-28T07:06:29.690Z,30.20
2023-03-28T07:07:32.651Z,26.80
2023-03-28T07:08:36.631Z,26.50
2023-03-28T07:09:39.556Z,26.70
2023-03-28T07:10:46.150Z,28.10
2023-03-28T07:11:49.395Z,33.60
2023-03-28T07:12:55.152Z,26.70
2023-03-28T07:13:58.192Z,30.60
2023-03-28T07:15:01.041Z,25.60
2023-03-28T07:16:09.011Z,27.00
2023-03-28T07:17:12.147Z,32.40
2023-03-28T07:18:14.943Z,25.50
2023-03-28T07:19:17.877Z,26.90
2023-03-28T07:20:22.246Z,26.20
2023-03-28T07:21:25.621Z,26.80
2023-03-28T07:22:31.304Z,24.90
2023-03-28T07:23:34.133Z,22.20
2023-03-28T07:24:36.981Z,26.80
2023-03-28T07:25:47.013Z,21.00
2023-03-28T07:26:50.047Z,26.30
2023-03-28T07:27:52.992Z,23.60
2023-03-28T07:28:56.659Z,29.70
2023-03-28T07:29:59.549Z,26.70
2023-03-28T07:31:04.631Z,26.40
2023-03-28T07:32:09.147Z,27.70
2023-03-28T07:33:18.899Z,23.90
2023-03-28T07:34:25.123Z,25.70
2023-03-28T07:35:28.039Z,22.30
2023-03-28T07:36:30.999Z,30.60
2023-03-28T07:37:40.173Z,25.00
2023-03-28T07:38:52.586Z,23.10
2023-03-28T07:39:57.170Z,21.00
2023-03-28T07:41:01.645Z,19.50
2023-03-28T07:42:04.898Z,17.70
2023-03-28T07:43:07.853Z,20.90
2023-03-28T07:44:12.807Z,20.20
2023-03-28T07:45:15.908Z,20.40
2023-03-28T07:46:21.095Z,20.10
2023-03-28T07:47:24.112Z,20.00
2023-03-28T07:48:26.912Z,20.20
2023-03-28T07:49:30.010Z,19.00
2023-03-28T07:50:32.875Z,20.80
2023-03-28T07:51:35.809Z,13.80
2023-03-28T07:52:44.222Z,16.00
2023-03-28T07:53:47.389Z,25.70
2023-03-28T07:54:50.483Z,18.20
2023-03-28T07:55:56.016Z,16.80
2023-03-28T07:57:05.279Z,16.30
2023-03-28T07:58:26.753Z,14.70
2023-03-28T07:59:32.062Z,15.30
2023-03-28T08:00:35.567Z,12.00
2023-03-28T08:02:10.615Z,16.00
2023-03-28T08:03:14.507Z,14.20
2023-03-28T08:04:17.780Z,14.40
2023-03-28T08:05:52.074Z,12.70
2023-03-28T08:06:56.152Z,15.60
2023-03-28T08:07:59.478Z,11.50
2023-03-28T08:09:02.409Z,15.50
2023-03-28T08:10:11.423Z,11.30
2023-03-28T08:11:14.366Z,13.20
2023-03-28T08:12:19.076Z,13.60
2023-03-28T08:13:23.152Z,17.70
2023-03-28T08:14:26.084Z,12.60
2023-03-28T08:15:28.941Z,13.30
2023-03-28T08:16:33.354Z,12.20
2023-03-28T08:17:36.326Z,13.50
2023-03-28T08:18:39.307Z,14.30
2023-03-28T08:19:42.164Z,11.50
2023-03-28T08:20:48.593Z,15.90
2023-03-28T08:21:52.296Z,11.50
2023-03-28T08:22:55.177Z,11.30
2023-03-28T08:24:28.914Z,11.20
2023-03-28T08:25:44.449Z,11.10
2023-03-28T08:26:48.880Z,9.70
2023-03-28T08:27:52.181Z,12.20
2023-03-28T08:28:58.791Z,11.50
2023-03-28T08:30:02.179Z,9.90
2023-03-28T08:31:14.683Z,9.70
2023-03-28T08:32:18.136Z,9.90
2023-03-28T08:33:21.522Z,9.10
2023-03-28T08:34:24.593Z,8.70
2023-03-28T08:35:27.634Z,9.00
2023-03-28T08:36:32.423Z,8.30
2023-03-28T08:37:35.695Z,8.50
2023-03-28T08:38:38.692Z,8.70
2023-03-28T08:39:42.801Z,8.30
2023-03-28T08:40:57.966Z,8.20
2023-03-28T08:42:24.447Z,7.50
2023-03-28T08:43:43.060Z,7.70
2023-03-28T08:45:09.995Z,8.60
2023-03-28T08:46:18.660Z,7.50
2023-03-28T08:47:30.102Z,6.10
2023-03-28T08:48:45.006Z,7.20
2023-03-28T08:49:56.242Z,7.00
2023-03-28T08:51:06.724Z,8.30
2023-03-28T08:52:12.529Z,6.60
2023-03-28T08:53:24.331Z,8.00
2023-03-28T08:54:42.550Z,6.00
2023-03-28T08:55:47.761Z,7.00
2023-03-28T08:56:57.212Z,8.50
2023-03-28T08:58:00.363Z,8.90
2023-03-28T08:59:10.380Z,7.70
2023-03-28T09:00:24.184Z,6.40
2023-03-28T09:01:32.890Z,5.70
2023-03-28T09:02:36.370Z,6.30
2023-03-28T09:03:39.695Z,9.70
2023-03-28T09:04:47.021Z,6.10
2023-03-28T09:06:16.285Z,7.80
2023-03-28T09:07:27.641Z,5.90
2023-03-28T09:08:33.237Z,8.10
2023-03-28T09:10:07.884Z,6.70
2023-03-28T09:11:42.733Z,11.40
2023-03-28T09:13:12.609Z,4.70
2023-03-28T09:14:56.576Z,6.00
2023-03-28T09:16:00.093Z,6.60
2023-03-28T09:17:03.675Z,5.60
2023-03-28T09:18:33.192Z,4.80
2023-03-28T09:20:11.719Z,4.50
2023-03-28T09:21:33.466Z,5.70
2023-03-28T09:23:00.260Z,5.70
2023-03-28T09:24:39.839Z,5.20
2023-03-28T09:26:00.862Z,6.70
2023-03-28T09:27:22.369Z,8.10
2023-03-28T09:28:54.931Z,7.70
2023-03-28T09:30:08.325Z,8.90
2023-03-28T09:31:14.251Z,7.50
2023-03-28T09:32:22.719Z,9.20
2023-03-28T09:33:30.481Z,8.80
2023-03-28T09:34:44.820Z,10.30
2023-03-28T09:35:50.442Z,9.80
2023-03-28T09:37:01.191Z,10.60
2023-03-28T09:38:12.101Z,9.90
2023-03-28T09:39:27.096Z,12.80
2023-03-28T09:40:33.166Z,10.80
2023-03-28T09:42:09.320Z,11.40
2023-03-28T09:43:30.161Z,10.90
2023-03-28T09:45:05.697Z,12.50
2023-03-28T09:46:41.652Z,12.80
2023-03-28T09:48:29.065Z,13.20
2023-03-28T09:49:35.168Z,12.50
2023-03-28T09:50:41.468Z,13.70
2023-03-28T09:51:44.815Z,12.90
2023-03-28T09:52:51.165Z,14.70
2023-03-28T09:53:54.041Z,16.00
2023-03-28T09:54:58.084Z,16.20
2023-03-28T09:56:04.954Z,16.60
2023-03-28T09:57:11.499Z,14.80
2023-03-28T09:58:26.059Z,14.70
2023-03-28T09:59:40.666Z,17.10
2023-03-28T10:00:50.857Z,14.50
2023-03-28T10:02:32.525Z,14.70
2023-03-28T10:03:39.867Z,14.40
2023-03-28T10:04:44.639Z,16.90
2023-03-28T10:05:51.762Z,14.90
2023-03-28T10:07:12.538Z,13.00
2023-03-28T10:08:23.937Z,12.00
2023-03-28T10:10:10.940Z,13.40
2023-03-28T10:11:19.067Z,11.40
2023-03-28T10:12:43.584Z,10.30
2023-03-28T10:13:48.467Z,10.40
2023-03-28T10:14:51.676Z,11.00
2023-03-28T10:16:15.457Z,9.10
2023-03-28T10:17:37.081Z,8.60
2023-03-28T10:18:43.083Z,10.30
2023-03-28T10:19:47.824Z,10.60
2023-03-28T10:21:06.683Z,9.80
2023-03-28T10:22:22.699Z,9.20
2023-03-28T10:23:27.489Z,9.40
2023-03-28T10:24:32.934Z,6.90
2023-03-28T10:25:39.157Z,8.90
2023-03-28T10:26:42.143Z,10.20
2023-03-28T10:27:45.022Z,7.80
2023-03-28T10:28:52.448Z,7.50
2023-03-28T10:29:57.676Z,8.40
2023-03-28T10:31:05.707Z,7.60
2023-03-28T10:32:22.819Z,7.70
2023-03-28T10:33:43.293Z,7.90
2023-03-28T10:35:28.369Z,6.80
2023-03-28T10:36:51.723Z,7.30
2023-03-28T10:38:03.502Z,5.70
2023-03-28T10:39:29.510Z,6.80
2023-03-28T10:41:03.745Z,6.20
2023-03-28T10:42:41.100Z,8.80
2023-03-28T10:44:18.104Z,5.90
2023-03-28T10:45:36.792Z,8.30
2023-03-28T10:46:41.417Z,5.20
2023-03-28T10:48:00.954Z,4.80
2023-03-28T10:49:15.735Z,4.10
2023-03-28T10:50:55.166Z,2.90
2023-03-28T10:51:58.248Z,3.50
2023-03-28T10:53:27.171Z,7.10
2023-03-28T10:54:52.773Z,5.10
2023-03-28T10:56:38.487Z,3.80
2023-03-28T10:58:21.246Z,6.10
2023-03-28T10:59:28.029Z,5.40
2023-03-28T11:00:38.921Z,4.30
2023-03-28T11:01:57.183Z,5.20
2023-03-28T11:03:24.580Z,6.00
2023-03-28T11:05:11.964Z,4.00
2023-03-28T11:06:43.477Z,5.80
2023-03-28T11:08:22.779Z,4.50
2023-03-28T11:10:11.363Z,5.40
2023-03-28T11:11:46.482Z,3.20
2023-03-28T11:13:20.780Z,2.80
2023-03-28T11:14:29.039Z,3.40
2023-03-28T11:15:56.772Z,5.40
2023-03-28T11:17:52.878Z,3.60
2023-03-28T11:19:14.924Z,4.10
2023-03-28T11:20:23.056Z,3.80
2023-03-28T11:21:40.973Z,5.80
2023-03-28T11:23:06.842Z,4.40
2023-03-28T11:25:02.690Z,3.10
2023-03-28T11:27:12.666Z,4.70
2023-03-28T11:29:10.963Z,3.90
2023-03-28T11:30:23.021Z,3.90
2023-03-28T11:31:41.397Z,4.00
2023-03-28T11:33:05.694Z,2.10
2023-03-28T11:34:30.580Z,4.20
2023-03-28T11:35:54.363Z,3.00
2023-03-28T11:37:04.309Z,3.60
2023-03-28T11:38:14.834Z,6.70
2023-03-28T11:39:21.900Z,4.60
2023-03-28T11:40:34.446Z,2.80
2023-03-28T11:41:44.426Z,2.90
2023-03-28T11:43:00.488Z,2.90
2023-03-28T11:44:16.226Z,3.20
2023-03-28T11:45:52.022Z,3.10
2023-03-28T11:47:16.339Z,2.80
2023-03-28T11:48:30.864Z,3.70
2023-03-28T11:49:42.838Z,3.30
2023-03-28T11:51:29.213Z,2.50
2023-03-28T11:53:08.459Z,2.70
2023-03-28T11:54:22.347Z,2.40
2023-03-28T11:55:33.707Z,2.60
2023-03-28T11:57:01.323Z,2.50
2023-03-28T11:58:26.200Z,1.80
2023-03-28T12:00:14.884Z,2.90
2023-03-28T12:01:30.053Z,2.90
2023-03-28T12:02:42.395Z,3.80
2023-03-28T12:03:58.111Z,2.80
2023-03-28T12:05:25.445Z,2.40
2023-03-28T12:06:37.418Z,2.50
2023-03-28T12:07:47.161Z,3.90
2023-03-28T12:09:36.623Z,1.80
2023-03-28T12:10:43.507Z,5.50
2023-03-28T12:12:04.642Z,3.80
2023-03-28T12:13:16.880Z,2.10
2023-03-28T12:14:43.550Z,3.00
2023-03-28T12:16:17.906Z,2.90
2023-03-28T12:17:27.189Z,2.40
2023-03-28T12:18:42.618Z,2.60
2023-03-28T12:19:49.084Z,1.70
2023-03-28T12:21:00.858Z,2.00
2023-03-28T12:22:21.393Z,2.70
2023-03-28T12:23:44.891Z,3.60
2023-03-28T12:25:07.632Z,5.20
2023-03-28T12:26:23.514Z,4.00
2023-03-28T12:27:39.033Z,2.60
2023-03-28T12:28:56.972Z,4.50
2023-03-28T12:30:12.284Z,2.40
2023-03-28T12:31:31.636Z,3.70
2023-03-28T12:32:58.663Z,2.70
2023-03-28T12:34:15.124Z,2.00
2023-03-28T12:35:55.398Z,1.50
2023-03-28T12:37:12.166Z,2.70
2023-03-28T12:38:32.854Z,3.60
2023-03-28T12:40:13.172Z,2.00
2023-03-28T12:41:21.055Z,2.10
2023-03-28T12:42:27.190Z,2.20
2023-03-28T12:43:44.685Z,3.10
2023-03-28T12:44:59.864Z,3.90
2023-03-28T12:46:08.079Z,2.50
2023-03-28T12:47:19.237Z,6.50
2023-03-28T12:48:30.510Z,2.00
2023-03-28T12:49:48.805Z,1.80
2023-03-28T12:51:15.421Z,2.70
2023-03-28T12:52:32.438Z,2.60
2023-03-28T12:53:43.781Z,1.60
2023-03-28T12:55:01.811Z,2.70
2023-03-28T12:56:15.545Z,2.40
2023-03-28T12:57:40.263Z,1.70
2023-03-28T12:58:52.709Z,3.30
2023-03-28T13:00:01.534Z,2.10
2023-03-28T13:01:20.498Z,3.60
2023-03-28T13:03:01.518Z,2.30
2023-03-28T13:04:10.979Z,3.90
2023-03-28T13:06:09.123Z,4.10
2023-03-28T13:07:43.249Z,4.70
2023-03-28T13:09:05.874Z,3.70
2023-03-28T13:10:24.245Z,3.40
2023-03-28T13:11:44.043Z,4.40
2023-03-28T13:14:27.443Z,2.40
2023-03-28T13:15:32.876Z,2.50
2023-03-28T13:16:51.669Z,4.80
2023-03-28T13:18:22.280Z,3.50
2023-03-28T13:20:50.119Z,3.60
2023-03-28T13:22:31.680Z,5.70
2023-03-28T13:23:45.815Z,7.00
2023-03-28T13:24:48.596Z,3.50
2023-03-28T13:25:56.720Z,4.10
2023-03-28T13:27:06.106Z,3.30
2023-03-28T13:28:11.896Z,2.80
2023-03-28T13:29:14.900Z,5.00
2023-03-28T13:30:26.083Z,5.40
2023-03-28T13:31:29.024Z,2.80
2023-03-28T13:32:46.597Z,2.50
2023-03-28T13:33:59.827Z,2.80
2023-03-28T13:35:05.641Z,5.50
2023-03-28T13:36:08.490Z,4.80
2023-03-28T13:37:24.813Z,4.90
2023-03-28T13:38:27.543Z,3.70
2023-03-28T13:39:30.495Z,4.70
2023-03-28T13:40:51.272Z,3.50
2023-03-28T13:41:57.433Z,2.30
2023-03-28T13:43:00.336Z,1.70
2023-03-28T13:44:13.326Z,2.70
2023-03-28T13:45:23.945Z,4.10
2023-03-28T13:46:30.305Z,3.10
2023-03-28T13:47:38.359Z,3.80
2023-03-28T13:48:51.719Z,5.50
2023-03-28T13:50:04.149Z,6.50
2023-03-28T13:51:11.706Z,4.10
2023-03-28T13:52:19.319Z,3.10
2023-03-28T13:53:22.288Z,5.50
2023-03-28T13:54:28.330Z,4.20
2023-03-28T13:55:31.221Z,3.10
2023-03-28T13:56:36.166Z,3.10
2023-03-28T13:57:39.025Z,4.70
2023-03-28T13:58:41.825Z,2.80
2023-03-28T14:00:13.705Z,4.70
2023-03-28T14:01:42.195Z,4.60
2023-03-28T14:02:49.061Z,3.10
2023-03-28T14:03:55.837Z,2.10
2023-03-28T14:05:11.928Z,2.20
2023-03-28T14:06:40.576Z,2.70
2023-03-28T14:07:43.656Z,2.70
2023-03-28T14:08:53.471Z,5.80
2023-03-28T14:09:57.591Z,4.00
2023-03-28T14:11:00.902Z,5.90
2023-03-28T14:12:08.567Z,3.50
2023-03-28T14:13:18.460Z,1.70
2023-03-28T14:14:31.423Z,2.20
2023-03-28T14:15:37.513Z,3.80
2023-03-28T14:16:43.854Z,2.90
2023-03-28T14:17:46.997Z,2.40
2023-03-28T14:18:52.263Z,5.30
2023-03-28T14:19:58.724Z,5.40
2023-03-28T14:21:02.373Z,2.80
2023-03-28T14:22:07.732Z,2.70
2023-03-28T14:23:32.634Z,4.30
2023-03-28T14:24:36.899Z,4.00
2023-03-28T14:25:39.637Z,3.80
2023-03-28T14:26:42.634Z,6.70
2023-03-28T14:27:50.020Z,3.30
2023-03-28T14:28:53.121Z,4.00
2023-03-28T14:30:00.499Z,4.70
2023-03-28T14:31:03.619Z,2.20
2023-03-28T14:32:08.101Z,4.30
2023-03-28T14:33:14.137Z,3.60
2023-03-28T14:34:21.387Z,3.00
2023-03-28T14:35:29.465Z,3.50
2023-03-28T14:36:37.896Z,5.20
2023-03-28T14:37:47.617Z,3.40
2023-03-28T14:38:50.379Z,3.20
2023-03-28T14:39:54.341Z,4.20
2023-03-28T14:41:29.301Z,3.60
2023-03-28T14:42:33.090Z,5.40
2023-03-28T14:43:37.043Z,3.20
2023-03-28T14:44:43.230Z,4.50
2023-03-28T14:45:51.950Z,4.50
2023-03-28T14:46:58.610Z,3.00
2023-03-28T14:48:04.349Z,5.40
2023-03-28T14:49:10.149Z,3.70
2023-03-28T14:50:17.068Z,3.50
2023-03-28T14:51:23.459Z,3.30
2023-03-28T14:52:30.843Z,3.40
2023-03-28T14:53:42.297Z,3.50
2023-03-28T14:54:50.133Z,3.90
2023-03-28T14:56:06.435Z,3.40
2023-03-28T14:57:15.701Z,5.70
2023-03-28T14:58:19.390Z,4.80
2023-03-28T14:59:31.145Z,5.70
2023-03-28T15:00:40.951Z,5.60
2023-03-28T15:02:51.172Z,4.50
2023-03-28T15:04:00.023Z,4.30
2023-03-28T15:05:08.196Z,4.90
2023-03-28T15:06:15.181Z,6.90
2023-03-28T15:07:29.387Z,6.50
2023-03-28T15:08:36.022Z,4.00
2023-03-28T15:09:38.838Z,5.50
2023-03-28T15:10:51.510Z,4.00
2023-03-28T15:11:55.900Z,5.60
2023-03-28T15:13:38.191Z,4.00
2023-03-28T15:14:45.071Z,4.90
2023-03-28T15:15:48.761Z,4.80
2023-03-28T15:16:51.928Z,3.00
2023-03-28T15:17:57.165Z,3.10
2023-03-28T15:19:07.745Z,3.70
2023-03-28T15:20:17.659Z,4.10
2023-03-28T15:21:23.785Z,3.40
2023-03-28T15:22:28.960Z,4.10
2023-03-28T15:23:38.652Z,3.70
2023-03-28T15:24:41.829Z,3.60
2023-03-28T15:25:45.019Z,3.80
2023-03-28T15:26:51.226Z,3.30
2023-03-28T15:27:58.101Z,4.30
2023-03-28T15:29:01.576Z,5.10
2023-03-28T15:30:12.826Z,2.60
2023-03-28T15:31:16.556Z,3.50
2023-03-28T15:32:20.583Z,2.60
2023-03-28T15:33:26.030Z,4.00
2023-03-28T15:34:28.916Z,3.60
2023-03-28T15:35:43.582Z,5.40
2023-03-28T15:37:08.819Z,3.90
2023-03-28T15:38:21.660Z,6.60
2023-03-28T15:39:33.443Z,3.20
2023-03-28T15:40:42.368Z,3.60
2023-03-28T15:41:46.796Z,6.10
2023-03-28T15:42:51.557Z,7.80
2023-03-28T15:43:54.296Z,7.40
2023-03-28T15:44:57.208Z,7.20
2023-03-28T15:46:02.314Z,5.60
2023-03-28T15:47:09.805Z,4.80
2023-03-28T15:48:20.155Z,4.20
2023-03-28T15:49:22.932Z,4.10